sensor_id;sensor_type;location;lat;lon;timestamp;temperature;humidity
47336;DHT22;33068;51.990;5.926;2023-07-28T00:00:36;17.80;99.90
47336;DHT22;33068;51.990;5.926;2023-07-28T00:03:03;17.70;99.90
47336;DHT22;33068;51.990;5.926;2023-07-28T00:05:29;17.80;99.90
47336;DHT22;33068;51.990;5.926;2023-07-28T00:07:56;17.80;99.90
47336;DHT22;33068;51.990;5.926;2023-07-28T00:10:23;17.70;99.90
47336;DHT22;33068;51.990;5.926;2023-07-28T00:12:49;17.80;99.90
47336;DHT22;33068;51.990;5.926;2023-07-28T00:15:15;17.70;99.90
47336;DHT22;33068;51.990;5.926;2023-07-28T00:17:42;17.70;99.90
47336;DHT22;33068;51.990;5.926;2023-07-28T00:20:09;17.70;99.90
47336;DHT22;33068;51.990;5.926;2023-07-28T00:22:36;17.80;99.90
47336;DHT22;33068;51.990;5.926;2023-07-28T00:25:03;17.70;99.90
47336;DHT22;33068;51.990;5.926;2023-07-28T00:27:29;17.80;99.90
47336;DHT22;33068;51.990;5.926;2023-07-28T00:29:56;17.80;99.90
47336;DHT22;33068;51.990;5.926;2023-07-28T00:32:22;17.80;99.90
47336;DHT22;33068;51.990;5.926;2023-07-28T00:34:49;17.70;99.90
47336;DHT22;33068;51.990;5.926;2023-07-28T00:37:16;17.80;99.90
47336;DHT22;33068;51.990;5.926;2023-07-28T00:39:43;17.80;99.90
47336;DHT22;33068;51.990;5.926;2023-07-28T00:42:10;17.80;99.90
47336;DHT22;33068;51.990;5.926;2023-07-28T00:44:36;17.80;99.90
47336;DHT22;33068;51.990;5.926;2023-07-28T00:47:03;17.80;99.90
47336;DHT22;33068;51.990;5.926;2023-07-28T00:49:30;17.80;99.90
47336;DHT22;33068;51.990;5.926;2023-07-28T00:51:56;17.90;99.90
47336;DHT22;33068;51.990;5.926;2023-07-28T00:54:23;17.80;99.90
47336;DHT22;33068;51.990;5.926;2023-07-28T00:56:50;17.80;99.90
47336;DHT22;33068;51.990;5.926;2023-07-28T00:59:18;17.80;99.90
47336;DHT22;33068;51.990;5.926;2023-07-28T01:07:28;17.80;99.90
47336;DHT22;33068;51.990;5.926;2023-07-28T01:10:02;17.80;99.90
47336;DHT22;33068;51.990;5.926;2023-07-28T01:12:29;17.80;99.90
47336;DHT22;33068;51.990;5.926;2023-07-28T01:14:56;17.80;99.90
47336;DHT22;33068;51.990;5.926;2023-07-28T01:17:22;17.80;99.90
47336;DHT22;33068;51.990;5.926;2023-07-28T01:19:50;17.80;99.90
47336;DHT22;33068;51.990;5.926;2023-07-28T01:22:47;17.80;99.90
47336;DHT22;33068;51.990;5.926;2023-07-28T01:25:25;17.80;99.90
47336;DHT22;33068;51.990;5.926;2023-07-28T01:27:56;17.80;99.90
47336;DHT22;33068;51.990;5.926;2023-07-28T01:30:37;17.80;99.90
47336;DHT22;33068;51.990;5.926;2023-07-28T01:33:06;17.80;99.90
47336;DHT22;33068;51.990;5.926;2023-07-28T01:35:33;17.80;99.90
47336;DHT22;33068;51.990;5.926;2023-07-28T01:38:00;17.80;99.90
47336;DHT22;33068;51.990;5.926;2023-07-28T01:40:27;17.80;99.90
47336;DHT22;33068;51.990;5.926;2023-07-28T01:42:54;17.80;99.90
47336;DHT22;33068;51.990;5.926;2023-07-28T01:45:20;17.80;99.90
47336;DHT22;33068;51.990;5.926;2023-07-28T01:47:47;17.80;99.90
47336;DHT22;33068;51.990;5.926;2023-07-28T01:50:13;17.80;99.90
47336;DHT22;33068;51.990;5.926;2023-07-28T01:52:40;17.50;99.90
47336;DHT22;33068;51.990;5.926;2023-07-28T01:55:07;17.80;99.90
47336;DHT22;33068;51.990;5.926;2023-07-28T01:57:34;17.80;99.90
47336;DHT22;33068;51.990;5.926;2023-07-28T02:00:05;17.80;99.90
47336;DHT22;33068;51.990;5.926;2023-07-28T02:02:39;17.40;99.90
47336;DHT22;33068;51.990;5.926;2023-07-28T02:05:06;17.80;99.90
47336;DHT22;33068;51.990;5.926;2023-07-28T02:07:32;17.80;99.90
47336;DHT22;33068;51.990;5.926;2023-07-28T02:09:59;17.80;99.90
47336;DHT22;33068;51.990;5.926;2023-07-28T02:12:25;17.80;99.90
47336;DHT22;33068;51.990;5.926;2023-07-28T02:14:52;17.80;99.90
47336;DHT22;33068;51.990;5.926;2023-07-28T02:17:19;17.80;99.90
47336;DHT22;33068;51.990;5.926;2023-07-28T02:19:45;17.80;99.90
47336;DHT22;33068;51.990;5.926;2023-07-28T02:22:11;17.80;99.90
47336;DHT22;33068;51.990;5.926;2023-07-28T02:24:38;17.80;99.90
47336;DHT22;33068;51.990;5.926;2023-07-28T02:27:05;17.80;99.90
47336;DHT22;33068;51.990;5.926;2023-07-28T02:29:32;17.80;99.90
47336;DHT22;33068;51.990;5.926;2023-07-28T02:31:59;17.80;99.90
47336;DHT22;33068;51.990;5.926;2023-07-28T02:34:26;17.90;99.90
47336;DHT22;33068;51.990;5.926;2023-07-28T02:36:53;17.80;99.90
47336;DHT22;33068;51.990;5.926;2023-07-28T02:39:19;17.80;99.90
47336;DHT22;33068;51.990;5.926;2023-07-28T02:41:47;17.80;99.90
47336;DHT22;33068;51.990;5.926;2023-07-28T02:44:13;17.90;99.90
47336;DHT22;33068;51.990;5.926;2023-07-28T02:46:40;17.70;99.90
47336;DHT22;33068;51.990;5.926;2023-07-28T02:49:07;17.90;99.90
47336;DHT22;33068;51.990;5.926;2023-07-28T02:51:38;17.80;99.90
47336;DHT22;33068;51.990;5.926;2023-07-28T02:54:05;17.90;99.90
47336;DHT22;33068;51.990;5.926;2023-07-28T02:56:35;18.10;99.90
47336;DHT22;33068;51.990;5.926;2023-07-28T02:59:06;17.90;99.90
47336;DHT22;33068;51.990;5.926;2023-07-28T03:01:33;17.90;99.90
47336;DHT22;33068;51.990;5.926;2023-07-28T03:04:00;17.90;99.90
47336;DHT22;33068;51.990;5.926;2023-07-28T03:06:27;17.90;99.90
47336;DHT22;33068;51.990;5.926;2023-07-28T03:08:55;17.90;99.90
47336;DHT22;33068;51.990;5.926;2023-07-28T03:11:35;17.90;99.90
47336;DHT22;33068;51.990;5.926;2023-07-28T03:14:02;17.90;99.90
47336;DHT22;33068;51.990;5.926;2023-07-28T03:16:29;17.90;99.90
47336;DHT22;33068;51.990;5.926;2023-07-28T03:18:55;17.90;99.90
47336;DHT22;33068;51.990;5.926;2023-07-28T03:21:22;17.70;99.90
47336;DHT22;33068;51.990;5.926;2023-07-28T03:23:48;17.90;99.90
47336;DHT22;33068;51.990;5.926;2023-07-28T03:26:16;17.90;99.90
47336;DHT22;33068;51.990;5.926;2023-07-28T03:28:42;17.90;99.90
47336;DHT22;33068;51.990;5.926;2023-07-28T03:31:09;17.90;99.90
47336;DHT22;33068;51.990;5.926;2023-07-28T03:33:35;17.90;99.90
47336;DHT22;33068;51.990;5.926;2023-07-28T03:36:03;17.90;99.90
47336;DHT22;33068;51.990;5.926;2023-07-28T03:38:32;17.90;99.90
47336;DHT22;33068;51.990;5.926;2023-07-28T03:40:58;17.90;99.90
47336;DHT22;33068;51.990;5.926;2023-07-28T03:43:26;17.90;99.90
47336;DHT22;33068;51.990;5.926;2023-07-28T03:45:52;17.90;99.90
47336;DHT22;33068;51.990;5.926;2023-07-28T03:48:19;17.90;99.90
47336;DHT22;33068;51.990;5.926;2023-07-28T03:50:45;17.90;99.90
47336;DHT22;33068;51.990;5.926;2023-07-28T03:53:12;17.90;99.90
47336;DHT22;33068;51.990;5.926;2023-07-28T03:55:38;18.00;99.90
47336;DHT22;33068;51.990;5.926;2023-07-28T03:58:05;17.90;99.90
47336;DHT22;33068;51.990;5.926;2023-07-28T04:00:32;17.90;99.90
47336;DHT22;33068;51.990;5.926;2023-07-28T04:02:59;17.90;99.90
47336;DHT22;33068;51.990;5.926;2023-07-28T04:05:25;18.10;99.90
47336;DHT22;33068;51.990;5.926;2023-07-28T04:07:51;18.00;99.90
47336;DHT22;33068;51.990;5.926;2023-07-28T04:10:18;17.90;99.90
47336;DHT22;33068;51.990;5.926;2023-07-28T04:12:47;17.90;99.90
47336;DHT22;33068;51.990;5.926;2023-07-28T04:15:14;17.90;99.90
47336;DHT22;33068;51.990;5.926;2023-07-28T04:17:41;18.00;99.90
47336;DHT22;33068;51.990;5.926;2023-07-28T04:20:13;17.90;99.90
47336;DHT22;33068;51.990;5.926;2023-07-28T04:22:39;18.00;99.90
47336;DHT22;33068;51.990;5.926;2023-07-28T04:25:06;17.90;99.90
47336;DHT22;33068;51.990;5.926;2023-07-28T04:27:37;18.00;99.90
47336;DHT22;33068;51.990;5.926;2023-07-28T04:30:06;17.60;99.90
47336;DHT22;33068;51.990;5.926;2023-07-28T04:32:32;18.00;99.90
47336;DHT22;33068;51.990;5.926;2023-07-28T04:35:06;17.90;99.90
47336;DHT22;33068;51.990;5.926;2023-07-28T04:37:52;18.00;99.90
47336;DHT22;33068;51.990;5.926;2023-07-28T04:40:38;17.90;99.90
47336;DHT22;33068;51.990;5.926;2023-07-28T04:43:05;18.00;99.90
47336;DHT22;33068;51.990;5.926;2023-07-28T04:45:32;17.70;99.90
47336;DHT22;33068;51.990;5.926;2023-07-28T04:48:03;18.00;99.90
47336;DHT22;33068;51.990;5.926;2023-07-28T04:50:30;18.00;99.90
47336;DHT22;33068;51.990;5.926;2023-07-28T04:53:18;18.00;99.90
47336;DHT22;33068;51.990;5.926;2023-07-28T04:55:55;18.00;99.90
47336;DHT22;33068;51.990;5.926;2023-07-28T04:58:22;18.00;99.90
47336;DHT22;33068;51.990;5.926;2023-07-28T05:00:51;18.00;99.90
47336;DHT22;33068;51.990;5.926;2023-07-28T05:03:21;18.00;99.90
47336;DHT22;33068;51.990;5.926;2023-07-28T05:05:58;18.00;99.90
47336;DHT22;33068;51.990;5.926;2023-07-28T05:08:25;18.00;99.90
47336;DHT22;33068;51.990;5.926;2023-07-28T05:10:52;18.00;99.90
47336;DHT22;33068;51.990;5.926;2023-07-28T05:13:20;18.00;99.90
47336;DHT22;33068;51.990;5.926;2023-07-28T05:15:53;18.00;99.90
47336;DHT22;33068;51.990;5.926;2023-07-28T05:18:55;18.00;99.90
47336;DHT22;33068;51.990;5.926;2023-07-28T05:21:41;18.10;99.90
47336;DHT22;33068;51.990;5.926;2023-07-28T05:24:10;18.00;99.90
47336;DHT22;33068;51.990;5.926;2023-07-28T05:26:43;18.10;99.90
47336;DHT22;33068;51.990;5.926;2023-07-28T05:29:10;18.00;99.90
47336;DHT22;33068;51.990;5.926;2023-07-28T05:31:37;17.80;99.90
47336;DHT22;33068;51.990;5.926;2023-07-28T05:34:10;18.00;99.90
47336;DHT22;33068;51.990;5.926;2023-07-28T05:36:38;18.00;99.90
47336;DHT22;33068;51.990;5.926;2023-07-28T05:39:06;18.10;99.90
47336;DHT22;33068;51.990;5.926;2023-07-28T05:41:43;18.10;99.90
47336;DHT22;33068;51.990;5.926;2023-07-28T05:44:11;18.10;99.90
47336;DHT22;33068;51.990;5.926;2023-07-28T05:46:38;18.10;99.90
47336;DHT22;33068;51.990;5.926;2023-07-28T05:49:04;18.10;99.90
47336;DHT22;33068;51.990;5.926;2023-07-28T05:51:31;18.10;99.90
47336;DHT22;33068;51.990;5.926;2023-07-28T05:53:58;18.10;99.90
47336;DHT22;33068;51.990;5.926;2023-07-28T05:56:25;18.10;99.90
47336;DHT22;33068;51.990;5.926;2023-07-28T05:58:51;18.10;99.90
47336;DHT22;33068;51.990;5.926;2023-07-28T06:01:18;18.10;99.90
47336;DHT22;33068;51.990;5.926;2023-07-28T06:04:05;18.20;99.90
47336;DHT22;33068;51.990;5.926;2023-07-28T06:06:37;18.10;99.90
47336;DHT22;33068;51.990;5.926;2023-07-28T06:09:04;18.20;99.90
47336;DHT22;33068;51.990;5.926;2023-07-28T06:11:34;18.20;99.90
47336;DHT22;33068;51.990;5.926;2023-07-28T06:14:02;18.20;99.90
47336;DHT22;33068;51.990;5.926;2023-07-28T06:16:34;18.20;99.90
47336;DHT22;33068;51.990;5.926;2023-07-28T06:19:01;18.30;99.90
47336;DHT22;33068;51.990;5.926;2023-07-28T06:21:27;18.30;99.90
47336;DHT22;33068;51.990;5.926;2023-07-28T06:23:54;18.30;99.90
47336;DHT22;33068;51.990;5.926;2023-07-28T06:26:20;18.30;99.90
47336;DHT22;33068;51.990;5.926;2023-07-28T06:28:54;18.30;99.90
47336;DHT22;33068;51.990;5.926;2023-07-28T06:31:24;18.30;99.90
47336;DHT22;33068;51.990;5.926;2023-07-28T06:33:51;18.40;99.90
47336;DHT22;33068;51.990;5.926;2023-07-28T06:36:22;18.40;99.90
47336;DHT22;33068;51.990;5.926;2023-07-28T06:38:52;18.50;99.90
47336;DHT22;33068;51.990;5.926;2023-07-28T06:41:21;18.20;99.90
47336;DHT22;33068;51.990;5.926;2023-07-28T06:43:57;18.70;99.90
47336;DHT22;33068;51.990;5.926;2023-07-28T06:46:24;18.50;99.90
47336;DHT22;33068;51.990;5.926;2023-07-28T06:48:56;18.40;99.90
47336;DHT22;33068;51.990;5.926;2023-07-28T06:51:33;18.50;99.90
47336;DHT22;33068;51.990;5.926;2023-07-28T06:54:01;18.50;99.90
47336;DHT22;33068;51.990;5.926;2023-07-28T06:56:29;18.40;99.90
47336;DHT22;33068;51.990;5.926;2023-07-28T06:58:56;18.40;99.90
47336;DHT22;33068;51.990;5.926;2023-07-28T07:01:22;18.50;99.90
47336;DHT22;33068;51.990;5.926;2023-07-28T07:03:49;18.50;99.90
47336;DHT22;33068;51.990;5.926;2023-07-28T07:06:16;18.30;99.90
47336;DHT22;33068;51.990;5.926;2023-07-28T07:08:43;18.60;99.90
47336;DHT22;33068;51.990;5.926;2023-07-28T07:11:09;18.10;99.90
47336;DHT22;33068;51.990;5.926;2023-07-28T07:13:37;18.40;99.90
47336;DHT22;33068;51.990;5.926;2023-07-28T07:16:04;18.50;99.90
47336;DHT22;33068;51.990;5.926;2023-07-28T07:18:32;18.50;99.90
47336;DHT22;33068;51.990;5.926;2023-07-28T07:21:01;18.50;99.90
47336;DHT22;33068;51.990;5.926;2023-07-28T07:23:28;18.60;99.90
47336;DHT22;33068;51.990;5.926;2023-07-28T07:25:54;18.40;99.90
47336;DHT22;33068;51.990;5.926;2023-07-28T07:28:21;18.80;99.90
47336;DHT22;33068;51.990;5.926;2023-07-28T07:30:48;18.90;99.90
47336;DHT22;33068;51.990;5.926;2023-07-28T07:33:15;19.00;99.90
47336;DHT22;33068;51.990;5.926;2023-07-28T07:35:41;18.90;99.90
47336;DHT22;33068;51.990;5.926;2023-07-28T07:38:09;18.90;99.90
47336;DHT22;33068;51.990;5.926;2023-07-28T07:40:35;18.90;99.90
47336;DHT22;33068;51.990;5.926;2023-07-28T07:43:01;18.90;99.90
47336;DHT22;33068;51.990;5.926;2023-07-28T07:45:29;18.90;99.90
47336;DHT22;33068;51.990;5.926;2023-07-28T07:47:55;19.00;99.90
47336;DHT22;33068;51.990;5.926;2023-07-28T07:50:23;19.10;99.90
47336;DHT22;33068;51.990;5.926;2023-07-28T07:52:50;19.10;99.90
47336;DHT22;33068;51.990;5.926;2023-07-28T07:55:16;19.20;99.90
47336;DHT22;33068;51.990;5.926;2023-07-28T07:57:43;19.10;99.90
47336;DHT22;33068;51.990;5.926;2023-07-28T08:00:11;19.20;99.90
47336;DHT22;33068;51.990;5.926;2023-07-28T08:02:40;19.20;99.90
47336;DHT22;33068;51.990;5.926;2023-07-28T08:05:06;19.30;99.90
47336;DHT22;33068;51.990;5.926;2023-07-28T08:07:34;19.40;99.90
47336;DHT22;33068;51.990;5.926;2023-07-28T08:10:00;19.10;99.90
47336;DHT22;33068;51.990;5.926;2023-07-28T08:12:27;19.50;99.90
47336;DHT22;33068;51.990;5.926;2023-07-28T08:14:53;19.50;99.90
47336;DHT22;33068;51.990;5.926;2023-07-28T08:17:26;19.50;99.90
47336;DHT22;33068;51.990;5.926;2023-07-28T08:19:52;19.50;99.90
47336;DHT22;33068;51.990;5.926;2023-07-28T08:22:19;19.60;99.90
47336;DHT22;33068;51.990;5.926;2023-07-28T08:24:46;19.70;99.90
47336;DHT22;33068;51.990;5.926;2023-07-28T08:27:12;19.70;99.90
47336;DHT22;33068;51.990;5.926;2023-07-28T08:29:39;19.70;99.90
47336;DHT22;33068;51.990;5.926;2023-07-28T08:32:06;19.70;99.90
47336;DHT22;33068;51.990;5.926;2023-07-28T08:34:33;19.60;99.90
47336;DHT22;33068;51.990;5.926;2023-07-28T08:36:59;19.60;99.90
47336;DHT22;33068;51.990;5.926;2023-07-28T08:39:26;19.60;99.90
47336;DHT22;33068;51.990;5.926;2023-07-28T08:41:58;19.60;99.90
47336;DHT22;33068;51.990;5.926;2023-07-28T08:44:26;19.50;99.90
47336;DHT22;33068;51.990;5.926;2023-07-28T08:46:52;19.20;99.90
47336;DHT22;33068;51.990;5.926;2023-07-28T08:49:21;19.40;99.90
47336;DHT22;33068;51.990;5.926;2023-07-28T08:51:49;19.50;99.90
47336;DHT22;33068;51.990;5.926;2023-07-28T08:54:15;19.50;99.90
47336;DHT22;33068;51.990;5.926;2023-07-28T08:56:42;19.60;99.90
47336;DHT22;33068;51.990;5.926;2023-07-28T08:59:10;19.70;99.90
47336;DHT22;33068;51.990;5.926;2023-07-28T09:01:38;19.80;99.90
47336;DHT22;33068;51.990;5.926;2023-07-28T09:04:09;20.00;99.90
47336;DHT22;33068;51.990;5.926;2023-07-28T09:06:37;20.10;99.90
47336;DHT22;33068;51.990;5.926;2023-07-28T09:09:06;20.10;99.90
47336;DHT22;33068;51.990;5.926;2023-07-28T09:11:33;20.10;99.90
47336;DHT22;33068;51.990;5.926;2023-07-28T09:14:00;20.20;99.90
47336;DHT22;33068;51.990;5.926;2023-07-28T09:16:28;20.20;99.90
47336;DHT22;33068;51.990;5.926;2023-07-28T09:19:04;19.90;99.90
47336;DHT22;33068;51.990;5.926;2023-07-28T09:21:32;20.20;99.90
47336;DHT22;33068;51.990;5.926;2023-07-28T09:24:06;20.00;99.90
47336;DHT22;33068;51.990;5.926;2023-07-28T09:26:41;20.10;99.90
47336;DHT22;33068;51.990;5.926;2023-07-28T09:29:12;20.00;99.90
47336;DHT22;33068;51.990;5.926;2023-07-28T09:31:39;20.00;99.90
47336;DHT22;33068;51.990;5.926;2023-07-28T09:34:07;19.90;99.90
47336;DHT22;33068;51.990;5.926;2023-07-28T09:36:34;20.00;99.90
47336;DHT22;33068;51.990;5.926;2023-07-28T09:39:02;20.00;99.90
47336;DHT22;33068;51.990;5.926;2023-07-28T09:41:29;20.30;99.90
47336;DHT22;33068;51.990;5.926;2023-07-28T09:43:56;20.60;99.90
47336;DHT22;33068;51.990;5.926;2023-07-28T09:46:32;21.00;99.90
47336;DHT22;33068;51.990;5.926;2023-07-28T09:49:05;21.60;99.90
47336;DHT22;33068;51.990;5.926;2023-07-28T09:51:33;21.70;99.90
47336;DHT22;33068;51.990;5.926;2023-07-28T09:54:19;22.10;99.90
47336;DHT22;33068;51.990;5.926;2023-07-28T09:56:56;22.50;99.90
47336;DHT22;33068;51.990;5.926;2023-07-28T09:59:28;22.50;99.90
47336;DHT22;33068;51.990;5.926;2023-07-28T10:01:57;22.30;99.90
47336;DHT22;33068;51.990;5.926;2023-07-28T10:04:25;22.40;99.90
47336;DHT22;33068;51.990;5.926;2023-07-28T10:06:56;22.40;99.90
47336;DHT22;33068;51.990;5.926;2023-07-28T10:09:29;22.20;99.90
47336;DHT22;33068;51.990;5.926;2023-07-28T10:11:59;22.30;99.90
47336;DHT22;33068;51.990;5.926;2023-07-28T10:14:30;22.40;99.90
47336;DHT22;33068;51.990;5.926;2023-07-28T10:16:58;22.90;99.90
47336;DHT22;33068;51.990;5.926;2023-07-28T10:19:26;23.10;99.90
47336;DHT22;33068;51.990;5.926;2023-07-28T10:21:59;23.20;99.90
47336;DHT22;33068;51.990;5.926;2023-07-28T10:24:51;23.60;99.90
47336;DHT22;33068;51.990;5.926;2023-07-28T10:27:29;23.70;99.90
47336;DHT22;33068;51.990;5.926;2023-07-28T10:29:58;24.20;99.90
47336;DHT22;33068;51.990;5.926;2023-07-28T10:32:26;24.30;99.90
47336;DHT22;33068;51.990;5.926;2023-07-28T10:38:30;23.80;99.90
47336;DHT22;33068;51.990;5.926;2023-07-28T10:41:14;23.80;99.90
47336;DHT22;33068;51.990;5.926;2023-07-28T10:43:43;23.80;99.90
47336;DHT22;33068;51.990;5.926;2023-07-28T10:46:15;23.50;99.90
47336;DHT22;33068;51.990;5.926;2023-07-28T10:48:46;23.80;99.90
47336;DHT22;33068;51.990;5.926;2023-07-28T10:51:21;23.80;99.90
47336;DHT22;33068;51.990;5.926;2023-07-28T10:53:51;23.60;99.90
47336;DHT22;33068;51.990;5.926;2023-07-28T10:56:18;23.60;99.90
47336;DHT22;33068;51.990;5.926;2023-07-28T10:58:45;24.50;99.90
47336;DHT22;33068;51.990;5.926;2023-07-28T11:01:14;24.30;99.90
47336;DHT22;33068;51.990;5.926;2023-07-28T11:03:45;23.80;99.90
47336;DHT22;33068;51.990;5.926;2023-07-28T11:06:13;23.80;99.90
47336;DHT22;33068;51.990;5.926;2023-07-28T11:08:42;23.80;99.90
47336;DHT22;33068;51.990;5.926;2023-07-28T11:11:11;24.30;99.90
47336;DHT22;33068;51.990;5.926;2023-07-28T11:13:39;24.30;99.90
47336;DHT22;33068;51.990;5.926;2023-07-28T11:16:09;24.60;99.90
47336;DHT22;33068;51.990;5.926;2023-07-28T11:18:46;24.60;99.90
47336;DHT22;33068;51.990;5.926;2023-07-28T11:21:17;24.10;99.90
47336;DHT22;33068;51.990;5.926;2023-07-28T11:23:45;24.20;99.90
47336;DHT22;33068;51.990;5.926;2023-07-28T11:26:16;24.20;99.90
47336;DHT22;33068;51.990;5.926;2023-07-28T11:28:43;24.30;99.90
47336;DHT22;33068;51.990;5.926;2023-07-28T11:31:11;24.30;99.90
47336;DHT22;33068;51.990;5.926;2023-07-28T11:33:38;24.20;99.90
47336;DHT22;33068;51.990;5.926;2023-07-28T11:36:35;24.20;99.90
47336;DHT22;33068;51.990;5.926;2023-07-28T11:43:09;23.60;99.90
47336;DHT22;33068;51.990;5.926;2023-07-28T11:45:36;23.90;99.90
47336;DHT22;33068;51.990;5.926;2023-07-28T11:48:03;24.10;99.90
47336;DHT22;33068;51.990;5.926;2023-07-28T11:51:22;24.20;99.90
47336;DHT22;33068;51.990;5.926;2023-07-28T11:53:50;24.20;99.90
47336;DHT22;33068;51.990;5.926;2023-07-28T11:56:19;24.40;99.90
47336;DHT22;33068;51.990;5.926;2023-07-28T11:58:51;24.20;99.90
47336;DHT22;33068;51.990;5.926;2023-07-28T12:01:18;24.70;99.90
47336;DHT22;33068;51.990;5.926;2023-07-28T12:03:45;24.90;99.90
47336;DHT22;33068;51.990;5.926;2023-07-28T12:06:16;24.90;99.90
47336;DHT22;33068;51.990;5.926;2023-07-28T12:08:45;25.00;99.90
47336;DHT22;33068;51.990;5.926;2023-07-28T12:11:17;25.30;99.90
47336;DHT22;33068;51.990;5.926;2023-07-28T12:13:56;25.40;99.90
47336;DHT22;33068;51.990;5.926;2023-07-28T12:16:37;25.40;99.90
47336;DHT22;33068;51.990;5.926;2023-07-28T12:19:04;25.30;99.90
47336;DHT22;33068;51.990;5.926;2023-07-28T12:21:31;25.20;99.90
47336;DHT22;33068;51.990;5.926;2023-07-28T12:23:59;25.10;99.90
47336;DHT22;33068;51.990;5.926;2023-07-28T12:26:26;25.30;99.90
47336;DHT22;33068;51.990;5.926;2023-07-28T12:28:57;25.30;99.90
47336;DHT22;33068;51.990;5.926;2023-07-28T12:31:29;25.30;99.90
47336;DHT22;33068;51.990;5.926;2023-07-28T12:33:57;25.10;99.90
47336;DHT22;33068;51.990;5.926;2023-07-28T12:36:36;25.10;99.90
47336;DHT22;33068;51.990;5.926;2023-07-28T12:39:19;25.10;99.90
47336;DHT22;33068;51.990;5.926;2023-07-28T12:42:02;25.20;99.90
47336;DHT22;33068;51.990;5.926;2023-07-28T12:44:30;25.20;99.90
47336;DHT22;33068;51.990;5.926;2023-07-28T12:46:56;25.20;99.90
47336;DHT22;33068;51.990;5.926;2023-07-28T12:49:24;25.20;99.90
47336;DHT22;33068;51.990;5.926;2023-07-28T12:51:51;25.30;99.90
47336;DHT22;33068;51.990;5.926;2023-07-28T12:54:18;25.30;99.90
47336;DHT22;33068;51.990;5.926;2023-07-28T12:56:50;25.30;99.90
47336;DHT22;33068;51.990;5.926;2023-07-28T13:03:13;25.50;99.90
47336;DHT22;33068;51.990;5.926;2023-07-28T13:05:39;25.40;99.90
47336;DHT22;33068;51.990;5.926;2023-07-28T13:08:11;25.50;99.90
47336;DHT22;33068;51.990;5.926;2023-07-28T13:10:38;26.10;99.90
47336;DHT22;33068;51.990;5.926;2023-07-28T13:13:07;26.20;99.90
47336;DHT22;33068;51.990;5.926;2023-07-28T13:15:37;26.10;99.90
47336;DHT22;33068;51.990;5.926;2023-07-28T13:18:05;26.20;99.90
47336;DHT22;33068;51.990;5.926;2023-07-28T13:20:33;26.00;99.90
47336;DHT22;33068;51.990;5.926;2023-07-28T13:22:59;26.40;99.90
47336;DHT22;33068;51.990;5.926;2023-07-28T13:25:26;26.80;99.90
47336;DHT22;33068;51.990;5.926;2023-07-28T13:27:52;27.00;99.90
47336;DHT22;33068;51.990;5.926;2023-07-28T13:30:19;27.20;99.90
47336;DHT22;33068;51.990;5.926;2023-07-28T13:32:45;27.10;99.90
47336;DHT22;33068;51.990;5.926;2023-07-28T13:35:12;27.30;99.90
47336;DHT22;33068;51.990;5.926;2023-07-28T13:37:41;27.40;99.90
47336;DHT22;33068;51.990;5.926;2023-07-28T13:40:08;27.40;99.90
47336;DHT22;33068;51.990;5.926;2023-07-28T13:42:35;27.30;99.90
47336;DHT22;33068;51.990;5.926;2023-07-28T13:45:02;26.80;99.90
47336;DHT22;33068;51.990;5.926;2023-07-28T13:47:29;26.80;99.90
47336;DHT22;33068;51.990;5.926;2023-07-28T13:49:55;26.50;99.90
47336;DHT22;33068;51.990;5.926;2023-07-28T13:52:30;26.40;99.90
47336;DHT22;33068;51.990;5.926;2023-07-28T13:54:59;26.30;99.90
47336;DHT22;33068;51.990;5.926;2023-07-28T13:57:28;26.60;99.90
47336;DHT22;33068;51.990;5.926;2023-07-28T13:59:58;26.90;99.90
47336;DHT22;33068;51.990;5.926;2023-07-28T14:02:25;27.00;99.90
47336;DHT22;33068;51.990;5.926;2023-07-28T14:04:52;27.40;99.90
47336;DHT22;33068;51.990;5.926;2023-07-28T14:07:18;27.90;99.90
47336;DHT22;33068;51.990;5.926;2023-07-28T14:09:45;28.10;99.90
47336;DHT22;33068;51.990;5.926;2023-07-28T14:12:13;27.90;99.90
47336;DHT22;33068;51.990;5.926;2023-07-28T14:14:39;27.40;99.90
47336;DHT22;33068;51.990;5.926;2023-07-28T14:17:06;27.80;99.90
47336;DHT22;33068;51.990;5.926;2023-07-28T14:19:33;28.00;99.90
47336;DHT22;33068;51.990;5.926;2023-07-28T14:21:59;27.90;99.90
47336;DHT22;33068;51.990;5.926;2023-07-28T14:24:26;27.80;99.90
47336;DHT22;33068;51.990;5.926;2023-07-28T14:26:54;28.10;99.90
47336;DHT22;33068;51.990;5.926;2023-07-28T14:29:22;28.30;99.90
47336;DHT22;33068;51.990;5.926;2023-07-28T14:31:48;28.00;99.90
47336;DHT22;33068;51.990;5.926;2023-07-28T14:34:15;27.80;99.90
47336;DHT22;33068;51.990;5.926;2023-07-28T14:36:42;27.90;99.90
47336;DHT22;33068;51.990;5.926;2023-07-28T14:39:08;27.80;99.90
47336;DHT22;33068;51.990;5.926;2023-07-28T14:41:35;27.20;99.90
47336;DHT22;33068;51.990;5.926;2023-07-28T14:44:02;26.80;99.90
47336;DHT22;33068;51.990;5.926;2023-07-28T14:46:29;26.50;99.90
47336;DHT22;33068;51.990;5.926;2023-07-28T14:48:55;26.50;99.90
47336;DHT22;33068;51.990;5.926;2023-07-28T14:51:22;26.40;99.90
47336;DHT22;33068;51.990;5.926;2023-07-28T14:53:49;26.50;99.90
47336;DHT22;33068;51.990;5.926;2023-07-28T14:56:16;26.50;99.90
47336;DHT22;33068;51.990;5.926;2023-07-28T14:58:43;26.40;99.90
47336;DHT22;33068;51.990;5.926;2023-07-28T15:01:10;26.30;99.90
47336;DHT22;33068;51.990;5.926;2023-07-28T15:03:38;26.20;99.90
47336;DHT22;33068;51.990;5.926;2023-07-28T15:06:05;26.90;99.90
47336;DHT22;33068;51.990;5.926;2023-07-28T15:08:32;27.70;99.90
47336;DHT22;33068;51.990;5.926;2023-07-28T15:10:59;27.40;99.90
47336;DHT22;33068;51.990;5.926;2023-07-28T15:13:27;27.00;99.90
47336;DHT22;33068;51.990;5.926;2023-07-28T15:15:55;26.40;99.90
47336;DHT22;33068;51.990;5.926;2023-07-28T15:18:21;26.00;99.90
47336;DHT22;33068;51.990;5.926;2023-07-28T15:20:49;25.90;99.90
47336;DHT22;33068;51.990;5.926;2023-07-28T15:23:21;25.70;99.90
47336;DHT22;33068;51.990;5.926;2023-07-28T15:25:48;25.50;99.90
47336;DHT22;33068;51.990;5.926;2023-07-28T15:28:15;25.40;99.90
47336;DHT22;33068;51.990;5.926;2023-07-28T15:30:41;25.30;99.90
47336;DHT22;33068;51.990;5.926;2023-07-28T15:33:08;25.20;99.90
47336;DHT22;33068;51.990;5.926;2023-07-28T15:47:17;25.00;99.90
47336;DHT22;33068;51.990;5.926;2023-07-28T15:49:44;24.60;99.90
47336;DHT22;33068;51.990;5.926;2023-07-28T15:52:10;25.00;99.90
47336;DHT22;33068;51.990;5.926;2023-07-28T15:54:41;25.10;99.90
47336;DHT22;33068;51.990;5.926;2023-07-28T15:57:08;25.10;99.90
47336;DHT22;33068;51.990;5.926;2023-07-28T15:59:35;25.70;99.90
47336;DHT22;33068;51.990;5.926;2023-07-28T16:02:02;25.90;99.90
47336;DHT22;33068;51.990;5.926;2023-07-28T16:04:30;26.20;99.90
47336;DHT22;33068;51.990;5.926;2023-07-28T16:06:56;26.00;99.90
47336;DHT22;33068;51.990;5.926;2023-07-28T16:09:23;26.00;99.90